sensor_id;sensor_type;location;lat;lon;timestamp;P1;durP1;ratioP1;P2;durP2;ratioP2
30249;SDS011;17064;47.974;13.826;2023-03-08T04:00:33;20.40;;;9.18;;
30249;SDS011;17064;47.974;13.826;2023-03-08T04:05:34;27.13;;;9.18;;
30249;SDS011;17064;47.974;13.826;2023-03-08T04:10:35;18.48;;;8.50;;
30249;SDS011;17064;47.974;13.826;2023-03-08T04:15:36;22.70;;;8.88;;
30249;SDS011;17064;47.974;13.826;2023-03-08T04:20:37;19.75;;;8.43;;
30249;SDS011;17064;47.974;13.826;2023-03-08T04:25:38;19.02;;;9.38;;
30249;SDS011;17064;47.974;13.826;2023-03-08T04:30:38;16.63;;;8.75;;
30249;SDS011;17064;47.974;13.826;2023-03-08T04:35:39;18.73;;;8.27;;
30249;SDS011;17064;47.974;13.826;2023-03-08T04:40:45;19.50;;;8.80;;
30249;SDS011;17064;47.974;13.826;2023-03-08T04:46:00;17.30;;;8.32;;
30249;SDS011;17064;47.974;13.826;2023-03-08T04:51:02;20.25;;;8.60;;
30249;SDS011;17064;47.974;13.826;2023-03-08T04:56:04;21.75;;;8.20;;
30249;SDS011;17064;47.974;13.826;2023-03-08T05:01:13;20.27;;;8.43;;
30249;SDS011;17064;47.974;13.826;2023-03-08T05:06:16;19.45;;;8.57;;
30249;SDS011;17064;47.974;13.826;2023-03-08T05:11:21;17.58;;;7.18;;
30249;SDS011;17064;47.974;13.826;2023-03-08T05:16:24;17.30;;;8.15;;
30249;SDS011;17064;47.974;13.826;2023-03-08T05:21:25;19.48;;;8.07;;
30249;SDS011;17064;47.974;13.826;2023-03-08T05:26:26;22.65;;;8.77;;
30249;SDS011;17064;47.974;13.826;2023-03-08T05:31:27;20.35;;;7.70;;
30249;SDS011;17064;47.974;13.826;2023-03-08T05:36:28;14.30;;;6.22;;
30249;SDS011;17064;47.974;13.826;2023-03-08T05:41:29;15.25;;;7.15;;
30249;SDS011;17064;47.974;13.826;2023-03-08T05:46:30;15.43;;;7.18;;
30249;SDS011;17064;47.974;13.826;2023-03-08T05:51:31;20.00;;;7.47;;
30249;SDS011;17064;47.974;13.826;2023-03-08T05:56:32;15.18;;;6.75;;
30249;SDS011;17064;47.974;13.826;2023-03-08T06:01:33;19.23;;;7.82;;
30249;SDS011;17064;47.974;13.826;2023-03-08T06:06:34;18.13;;;8.93;;
30249;SDS011;17064;47.974;13.826;2023-03-08T06:11:34;21.30;;;9.40;;
30249;SDS011;17064;47.974;13.826;2023-03-08T06:16:36;22.27;;;8.32;;
30249;SDS011;17064;47.974;13.826;2023-03-08T06:21:37;17.20;;;7.82;;
30249;SDS011;17064;47.974;13.826;2023-03-08T06:26:38;16.58;;;8.02;;
30249;SDS011;17064;47.974;13.826;2023-03-08T06:31:38;18.70;;;8.23;;
30249;SDS011;17064;47.974;13.826;2023-03-08T06:36:39;29.27;;;9.98;;
30249;SDS011;17064;47.974;13.826;2023-03-08T06:41:40;28.38;;;8.73;;
30249;SDS011;17064;47.974;13.826;2023-03-08T06:46:41;16.20;;;7.68;;
30249;SDS011;17064;47.974;13.826;2023-03-08T06:51:41;19.40;;;8.55;;
30249;SDS011;17064;47.974;13.826;2023-03-08T06:56:45;20.55;;;8.57;;
30249;SDS011;17064;47.974;13.826;2023-03-08T07:01:46;21.63;;;8.45;;
30249;SDS011;17064;47.974;13.826;2023-03-08T07:06:47;18.67;;;7.95;;
30249;SDS011;17064;47.974;13.826;2023-03-08T07:11:48;19.15;;;8.45;;
30249;SDS011;17064;47.974;13.826;2023-03-08T07:16:49;25.98;;;9.05;;
30249;SDS011;17064;47.974;13.826;2023-03-08T07:21:49;18.90;;;9.07;;
30249;SDS011;17064;47.974;13.826;2023-03-08T07:26:50;21.38;;;9.85;;
30249;SDS011;17064;47.974;13.826;2023-03-08T07:31:51;24.08;;;9.80;;
30249;SDS011;17064;47.974;13.826;2023-03-08T07:36:52;18.50;;;7.63;;
30249;SDS011;17064;47.974;13.826;2023-03-08T07:41:52;19.00;;;9.25;;
30249;SDS011;17064;47.974;13.826;2023-03-08T07:46:53;17.88;;;8.27;;
30249;SDS011;17064;47.974;13.826;2023-03-08T07:51:54;15.88;;;7.78;;
30249;SDS011;17064;47.974;13.826;2023-03-08T07:56:54;15.65;;;7.57;;
30249;SDS011;17064;47.974;13.826;2023-03-08T08:01:55;20.77;;;9.77;;
30249;SDS011;17064;47.974;13.826;2023-03-08T08:06:56;22.80;;;8.23;;
30249;SDS011;17064;47.974;13.826;2023-03-08T08:11:58;18.52;;;8.02;;
30249;SDS011;17064;47.974;13.826;2023-03-08T08:16:59;14.65;;;7.43;;
30249;SDS011;17064;47.974;13.826;2023-03-08T08:21:59;18.90;;;8.60;;
30249;SDS011;17064;47.974;13.826;2023-03-08T08:27:00;14.23;;;7.72;;
30249;SDS011;17064;47.974;13.826;2023-03-08T08:32:01;17.10;;;8.48;;
30249;SDS011;17064;47.974;13.826;2023-03-08T08:37:03;16.13;;;8.02;;
30249;SDS011;17064;47.974;13.826;2023-03-08T08:42:04;16.02;;;7.30;;
30249;SDS011;17064;47.974;13.826;2023-03-08T08:47:05;16.75;;;7.03;;
30249;SDS011;17064;47.974;13.826;2023-03-08T08:52:06;18.15;;;7.80;;
30249;SDS011;17064;47.974;13.826;2023-03-08T08:57:06;17.98;;;7.63;;
30249;SDS011;17064;47.974;13.826;2023-03-08T09:02:08;16.55;;;8.35;;
30249;SDS011;17064;47.974;13.826;2023-03-08T09:07:10;18.05;;;8.73;;
30249;SDS011;17064;47.974;13.826;2023-03-08T09:12:11;15.07;;;7.80;;
30249;SDS011;17064;47.974;13.826;2023-03-08T09:17:12;15.40;;;7.15;;
30249;SDS011;17064;47.974;13.826;2023-03-08T09:22:13;15.90;;;8.30;;
30249;SDS011;17064;47.974;13.826;2023-03-08T09:27:13;13.35;;;7.65;;
30249;SDS011;17064;47.974;13.826;2023-03-08T09:32:14;16.60;;;8.02;;
30249;SDS011;17064;47.974;13.826;2023-03-08T09:37:15;16.65;;;8.13;;
30249;SDS011;17064;47.974;13.826;2023-03-08T09:47:34;14.45;;;7.55;;
30249;SDS011;17064;47.974;13.826;2023-03-08T09:52:43;18.98;;;7.72;;
30249;SDS011;17064;47.974;13.826;2023-03-08T09:58:23;14.45;;;7.43;;
30249;SDS011;17064;47.974;13.826;2023-03-08T10:09:02;18.00;;;9.13;;
30249;SDS011;17064;47.974;13.826;2023-03-08T10:14:46;13.68;;;7.40;;
30249;SDS011;17064;47.974;13.826;2023-03-08T10:25:03;11.07;;;6.32;;
30249;SDS011;17064;47.974;13.826;2023-03-08T10:30:17;15.55;;;6.88;;
30249;SDS011;17064;47.974;13.826;2023-03-08T10:35:29;15.23;;;7.07;;
30249;SDS011;17064;47.974;13.826;2023-03-08T10:40:31;12.95;;;6.43;;
30249;SDS011;17064;47.974;13.826;2023-03-08T10:45:32;14.50;;;7.70;;
30249;SDS011;17064;47.974;13.826;2023-03-08T10:50:34;11.18;;;6.68;;
30249;SDS011;17064;47.974;13.826;2023-03-08T10:55:39;14.27;;;7.82;;
30249;SDS011;17064;47.974;13.826;2023-03-08T11:00:45;15.05;;;8.40;;
30249;SDS011;17064;47.974;13.826;2023-03-08T11:06:00;11.82;;;7.07;;
30249;SDS011;17064;47.974;13.826;2023-03-08T11:11:13;15.32;;;7.32;;
30249;SDS011;17064;47.974;13.826;2023-03-08T11:16:21;13.65;;;7.53;;
30249;SDS011;17064;47.974;13.826;2023-03-08T11:21:34;12.40;;;7.28;;
30249;SDS011;17064;47.974;13.826;2023-03-08T11:58:01;14.97;;;7.53;;
30249;SDS011;17064;47.974;13.826;2023-03-08T12:03:22;16.88;;;7.78;;
30249;SDS011;17064;47.974;13.826;2023-03-08T12:46:05;17.77;;;7.63;;
30249;SDS011;17064;47.974;13.826;2023-03-08T12:51:18;13.10;;;7.47;;
30249;SDS011;17064;47.974;13.826;2023-03-08T12:56:33;16.75;;;7.30;;
30249;SDS011;17064;47.974;13.826;2023-03-08T13:01:38;16.55;;;8.18;;
30249;SDS011;17064;47.974;13.826;2023-03-08T13:06:51;13.32;;;7.22;;
30249;SDS011;17064;47.974;13.826;2023-03-08T13:11:57;15.95;;;6.82;;
30249;SDS011;17064;47.974;13.826;2023-03-08T13:22:39;21.83;;;11.40;;
30249;SDS011;17064;47.974;13.826;2023-03-08T13:28:14;13.88;;;7.72;;
30249;SDS011;17064;47.974;13.826;2023-03-08T13:39:00;17.98;;;7.68;;
30249;SDS011;17064;47.974;13.826;2023-03-08T13:44:20;17.77;;;8.07;;
30249;SDS011;17064;47.974;13.826;2023-03-08T13:49:23;14.93;;;8.15;;
30249;SDS011;17064;47.974;13.826;2023-03-08T13:54:29;18.90;;;8.18;;
30249;SDS011;17064;47.974;13.826;2023-03-08T14:04:34;15.23;;;6.82;;
30249;SDS011;17064;47.974;13.826;2023-03-08T14:09:35;15.88;;;8.73;;
30249;SDS011;17064;47.974;13.826;2023-03-08T14:14:37;16.67;;;8.85;;
30249;SDS011;17064;47.974;13.826;2023-03-08T14:19:40;17.25;;;7.97;;
30249;SDS011;17064;47.974;13.826;2023-03-08T14:24:42;20.52;;;9.00;;
30249;SDS011;17064;47.974;13.826;2023-03-08T14:29:47;15.40;;;8.55;;
30249;SDS011;17064;47.974;13.826;2023-03-08T14:34:48;21.00;;;8.00;;
30249;SDS011;17064;47.974;13.826;2023-03-08T14:39:51;19.60;;;9.13;;
30249;SDS011;17064;47.974;13.826;2023-03-08T14:45:00;19.77;;;8.70;;
30249;SDS011;17064;47.974;13.826;2023-03-08T14:50:16;19.75;;;9.13;;
30249;SDS011;17064;47.974;13.826;2023-03-08T15:00:25;27.88;;;10.07;;
30249;SDS011;17064;47.974;13.826;2023-03-08T15:05:28;21.35;;;9.07;;
30249;SDS011;17064;47.974;13.826;2023-03-08T15:10:30;21.30;;;9.35;;
30249;SDS011;17064;47.974;13.826;2023-03-08T15:15:36;18.85;;;8.43;;
30249;SDS011;17064;47.974;13.826;2023-03-08T15:20:37;17.40;;;8.38;;
30249;SDS011;17064;47.974;13.826;2023-03-08T15:25:43;19.42;;;8.70;;
30249;SDS011;17064;47.974;13.826;2023-03-08T15:30:44;19.77;;;8.55;;
30249;SDS011;17064;47.974;13.826;2023-03-08T15:35:45;15.38;;;7.72;;
30249;SDS011;17064;47.974;13.826;2023-03-08T15:40:47;28.42;;;7.80;;
30249;SDS011;17064;47.974;13.826;2023-03-08T15:45:49;17.88;;;7.97;;
30249;SDS011;17064;47.974;13.826;2023-03-08T15:50:50;17.67;;;7.40;;
30249;SDS011;17064;47.974;13.826;2023-03-08T15:55:51;14.57;;;7.53;;
30249;SDS011;17064;47.974;13.826;2023-03-08T16:00:54;14.02;;;6.35;;
30249;SDS011;17064;47.974;13.826;2023-03-08T16:05:55;11.50;;;5.90;;
30249;SDS011;17064;47.974;13.826;2023-03-08T16:10:55;15.77;;;6.47;;
30249;SDS011;17064;47.974;13.826;2023-03-08T16:16:02;13.65;;;6.20;;
30249;SDS011;17064;47.974;13.826;2023-03-08T16:21:05;17.88;;;6.38;;
30249;SDS011;17064;47.974;13.826;2023-03-08T16:26:09;13.05;;;6.05;;
30249;SDS011;17064;47.974;13.826;2023-03-08T16:31:12;8.73;;;5.18;;
30249;SDS011;17064;47.974;13.826;2023-03-08T16:36:13;16.15;;;7.30;;
30249;SDS011;17064;47.974;13.826;2023-03-08T16:41:14;11.10;;;6.20;;
30249;SDS011;17064;47.974;13.826;2023-03-08T16:46:16;22.35;;;9.30;;
30249;SDS011;17064;47.974;13.826;2023-03-08T16:51:19;21.73;;;10.68;;
30249;SDS011;17064;47.974;13.826;2023-03-08T16:56:24;21.70;;;9.07;;
30249;SDS011;17064;47.974;13.826;2023-03-08T17:06:28;40.10;;;14.93;;
30249;SDS011;17064;47.974;13.826;2023-03-08T17:11:32;27.45;;;13.70;;
30249;SDS011;17064;47.974;13.826;2023-03-08T17:16:33;11.35;;;5.35;;
30249;SDS011;17064;47.974;13.826;2023-03-08T17:21:35;6.07;;;3.28;;
30249;SDS011;17064;47.974;13.826;2023-03-08T17:26:40;5.43;;;3.13;;
30249;SDS011;17064;47.974;13.826;2023-03-08T17:31:42;6.85;;;3.70;;
30249;SDS011;17064;47.974;13.826;2023-03-08T17:36:44;5.20;;;2.88;;
30249;SDS011;17064;47.974;13.826;2023-03-08T17:41:46;7.82;;;2.95;;
30249;SDS011;17064;47.974;13.826;2023-03-08T17:46:47;7.75;;;4.53;;
30249;SDS011;17064;47.974;13.826;2023-03-08T17:51:48;7.82;;;2.45;;
30249;SDS011;17064;47.974;13.826;2023-03-08T17:56:50;6.25;;;2.33;;
30249;SDS011;17064;47.974;13.826;2023-03-08T18:01:51;7.10;;;2.72;;
30249;SDS011;17064;47.974;13.826;2023-03-08T18:06:52;5.57;;;2.50;;
30249;SDS011;17064;47.974;13.826;2023-03-08T18:11:52;7.65;;;2.47;;
30249;SDS011;17064;47.974;13.826;2023-03-08T18:16:53;3.97;;;2.20;;
30249;SDS011;17064;47.974;13.826;2023-03-08T18:21:55;4.63;;;2.50;;
30249;SDS011;17064;47.974;13.826;2023-03-08T18:26:57;7.45;;;2.75;;
30249;SDS011;17064;47.974;13.826;2023-03-08T18:31:58;5.32;;;2.60;;
30249;SDS011;17064;47.974;13.826;2023-03-08T18:37:00;2.78;;;1.92;;
30249;SDS011;17064;47.974;13.826;2023-03-08T18:42:02;3.83;;;2.35;;
30249;SDS011;17064;47.974;13.826;2023-03-08T18:47:03;4.38;;;2.33;;
30249;SDS011;17064;47.974;13.826;2023-03-08T18:52:05;5.68;;;2.80;;
30249;SDS011;17064;47.974;13.826;2023-03-08T18:57:06;5.72;;;2.20;;
30249;SDS011;17064;47.974;13.826;2023-03-08T19:02:08;7.30;;;2.22;;
30249;SDS011;17064;47.974;13.826;2023-03-08T19:12:12;5.68;;;2.75;;
30249;SDS011;17064;47.974;13.826;2023-03-08T19:17:15;7.82;;;2.78;;
30249;SDS011;17064;47.974;13.826;2023-03-08T19:22:16;5.53;;;2.28;;
30249;SDS011;17064;47.974;13.826;2023-03-08T19:27:17;2.50;;;2.10;;
30249;SDS011;17064;47.974;13.826;2023-03-08T19:32:19;4.25;;;2.40;;
30249;SDS011;17064;47.974;13.826;2023-03-08T19:37:20;3.78;;;2.25;;
30249;SDS011;17064;47.974;13.826;2023-03-08T19:42:21;3.97;;;2.20;;
30249;SDS011;17064;47.974;13.826;2023-03-08T19:47:22;5.60;;;2.80;;
30249;SDS011;17064;47.974;13.826;2023-03-08T19:52:23;9.57;;;4.30;;
30249;SDS011;17064;47.974;13.826;2023-03-08T19:57:24;6.35;;;3.88;;
30249;SDS011;17064;47.974;13.826;2023-03-08T20:02:26;7.82;;;3.95;;
30249;SDS011;17064;47.974;13.826;2023-03-08T20:07:27;8.82;;;4.55;;
30249;SDS011;17064;47.974;13.826;2023-03-08T20:12:28;11.60;;;5.78;;
30249;SDS011;17064;47.974;13.826;2023-03-08T20:17:29;8.65;;;5.38;;
30249;SDS011;17064;47.974;13.826;2023-03-08T20:22:32;8.52;;;5.38;;
30249;SDS011;17064;47.974;13.826;2023-03-08T20:27:33;11.60;;;5.15;;
30249;SDS011;17064;47.974;13.826;2023-03-08T20:32:34;8.35;;;3.53;;
30249;SDS011;17064;47.974;13.826;2023-03-08T20:37:36;16.73;;;3.45;;
30249;SDS011;17064;47.974;13.826;2023-03-08T20:42:38;3.10;;;1.90;;
30249;SDS011;17064;47.974;13.826;2023-03-08T20:47:40;3.85;;;2.33;;
30249;SDS011;17064;47.974;13.826;2023-03-08T20:52:41;6.30;;;2.17;;
30249;SDS011;17064;47.974;13.826;2023-03-08T20:57:43;4.85;;;2.35;;
30249;SDS011;17064;47.974;13.826;2023-03-08T21:02:50;3.78;;;2.08;;
30249;SDS011;17064;47.974;13.826;2023-03-08T21:07:51;7.32;;;2.33;;
30249;SDS011;17064;47.974;13.826;2023-03-08T21:12:54;7.73;;;2.83;;
30249;SDS011;17064;47.974;13.826;2023-03-08T21:17:55;6.60;;;2.78;;
30249;SDS011;17064;47.974;13.826;2023-03-08T21:22:56;4.97;;;2.65;;
30249;SDS011;17064;47.974;13.826;2023-03-08T21:27:57;4.53;;;2.53;;
30249;SDS011;17064;47.974;13.826;2023-03-08T21:33:03;4.73;;;2.20;;
30249;SDS011;17064;47.974;13.826;2023-03-08T21:38:04;4.97;;;1.95;;
30249;SDS011;17064;47.974;13.826;2023-03-08T21:43:06;4.13;;;1.80;;
30249;SDS011;17064;47.974;13.826;2023-03-08T21:48:07;3.40;;;1.40;;
30249;SDS011;17064;47.974;13.826;2023-03-08T21:53:09;4.47;;;1.23;;
30249;SDS011;17064;47.974;13.826;2023-03-08T21:58:10;2.78;;;1.77;;
30249;SDS011;17064;47.974;13.826;2023-03-08T22:03:11;4.78;;;1.48;;
30249;SDS011;17064;47.974;13.826;2023-03-08T22:08:11;5.25;;;1.92;;
30249;SDS011;17064;47.974;13.826;2023-03-08T22:13:12;4.65;;;2.20;;
30249;SDS011;17064;47.974;13.826;2023-03-08T22:18:13;6.57;;;2.53;;
30249;SDS011;17064;47.974;13.826;2023-03-08T22:23:14;4.30;;;2.10;;
30249;SDS011;17064;47.974;13.826;2023-03-08T22:28:15;4.78;;;2.63;;
30249;SDS011;17064;47.974;13.826;2023-03-08T22:33:16;5.90;;;2.97;;
30249;SDS011;17064;47.974;13.826;2023-03-08T22:38:16;6.60;;;3.50;;
30249;SDS011;17064;47.974;13.826;2023-03-08T22:43:19;5.53;;;2.20;;
30249;SDS011;17064;47.974;13.826;2023-03-08T22:48:20;6.18;;;3.22;;
30249;SDS011;17064;47.974;13.826;2023-03-08T22:53:21;5.95;;;3.08;;
30249;SDS011;17064;47.974;13.826;2023-03-08T22:58:22;3.97;;;2.60;;
30249;SDS011;17064;47.974;13.826;2023-03-08T23:03:23;6.97;;;2.97;;
30249;SDS011;17064;47.974;13.826;2023-03-08T23:08:24;4.85;;;3.28;;
30249;SDS011;17064;47.974;13.826;2023-03-08T23:13:24;4.85;;;2.53;;
30249;SDS011;17064;47.974;13.826;2023-03-08T23:18:25;7.07;;;2.92;;
30249;SDS011;17064;47.974;13.826;2023-03-08T23:23:26;10.68;;;3.95;;
30249;SDS011;17064;47.974;13.826;2023-03-08T23:28:26;4.10;;;2.63;;
30249;SDS011;17064;47.974;13.826;2023-03-08T23:33:27;3.63;;;2.45;;
30249;SDS011;17064;47.974;13.826;2023-03-08T23:38:28;3.05;;;1.98;;
30249;SDS011;17064;47.974;13.826;2023-03-08T23:43:29;5.43;;;2.80;;
30249;SDS011;17064;47.974;13.826;2023-03-08T23:48:29;7.10;;;2.80;;
30249;SDS011;17064;47.974;13.826;2023-03-08T23:53:30;3.88;;;2.10;;
30249;SDS011;17064;47.974;13.826;2023-03-08T23:58:31;6.75;;;2.63;;
